createdAt,value
2023-03-17T00:05:40.689Z,3.4
2023-03-17T00:11:24.506Z,2.3
2023-03-17T00:17:08.678Z,2.5
2023-03-17T00:22:52.782Z,3
2023-03-17T00:28:37.441Z,2
2023-03-17T00:34:21.632Z,4.2
2023-03-17T00:40:05.364Z,2.7
2023-03-17T00:45:49.137Z,3.4
2023-03-17T00:51:32.997Z,2.4
2023-03-17T00:57:16.547Z,2.9
2023-03-17T01:03:00.460Z,2.5
2023-03-17T01:08:45.511Z,2.4
2023-03-17T01:14:29.328Z,3.2
2023-03-17T01:20:16.669Z,3
2023-03-17T01:26:00.445Z,1.8
2023-03-17T01:31:46.496Z,2.4
2023-03-17T01:37:30.240Z,2.2
2023-03-17T01:43:23.724Z,2.4
2023-03-17T01:49:14.762Z,2.7
2023-03-17T01:55:00.426Z,2.1
2023-03-17T02:00:44.521Z,3.3
2023-03-17T02:06:28.855Z,2.6
2023-03-17T02:12:13.231Z,2
2023-03-17T02:17:57.055Z,2.5
2023-03-17T02:23:40.843Z,2.2
2023-03-17T02:29:25.728Z,2.4
2023-03-17T02:35:10.338Z,2.3
2023-03-17T02:40:53.991Z,2.8
2023-03-17T02:46:37.835Z,2.3
2023-03-17T02:52:21.495Z,2.4
2023-03-17T02:58:06.172Z,2.3
2023-03-17T03:03:50.058Z,2.2
2023-03-17T03:09:33.886Z,2.4
2023-03-17T03:15:18.496Z,1.9
2023-03-17T03:21:02.315Z,2.8
2023-03-17T03:26:46.123Z,2.2
2023-03-17T03:32:30.018Z,2.5
2023-03-17T03:38:14.320Z,2.7
2023-03-17T03:43:58.334Z,2.6
2023-03-17T03:49:42.166Z,2.7
2023-03-17T03:55:25.985Z,2.8
2023-03-17T04:01:11.500Z,2.4
2023-03-17T04:06:55.151Z,1.8
2023-03-17T04:12:39.148Z,2.6
2023-03-17T04:18:23.016Z,2.8
2023-03-17T04:24:08.015Z,2.6
2023-03-17T04:29:51.723Z,2.5
2023-03-17T04:35:35.759Z,2.2
2023-03-17T04:41:19.580Z,2.9
2023-03-17T04:47:03.344Z,3
2023-03-17T04:52:47.125Z,2.2
2023-03-17T04:58:33.891Z,2.8
2023-03-17T05:04:32.586Z,2.4
2023-03-17T05:10:16.748Z,2.9
2023-03-17T05:16:00.620Z,4.4
2023-03-17T05:21:44.502Z,2.1
2023-03-17T05:27:28.230Z,2.4
2023-03-17T05:33:12.036Z,2
2023-03-17T05:38:55.788Z,3
2023-03-17T05:44:39.473Z,2.3
2023-03-17T05:50:23.224Z,3.7
2023-03-17T05:56:07.136Z,2.6
2023-03-17T06:01:50.878Z,2.6
2023-03-17T06:07:54.775Z,2.2
2023-03-17T06:13:38.440Z,2.6
2023-03-17T06:19:22.409Z,3.4
2023-03-17T06:25:06.299Z,3.1
2023-03-17T06:30:50.048Z,1.9
2023-03-17T06:36:33.911Z,3
2023-03-17T06:42:18.819Z,2.7
2023-03-17T06:48:02.632Z,2.8
2023-03-17T06:53:46.400Z,3.2
2023-03-17T06:59:30.220Z,2.6
2023-03-17T07:05:14.317Z,3.7
2023-03-17T07:11:00.539Z,3.5
2023-03-17T07:16:44.743Z,2.7
2023-03-17T07:22:28.694Z,4.4
2023-03-17T07:28:12.447Z,2.5
2023-03-17T07:33:59.161Z,3.1
2023-03-17T07:39:42.927Z,3.5
2023-03-17T07:45:27.107Z,3.2
2023-03-17T07:51:13.029Z,2.8
2023-03-17T07:56:57.127Z,3.1
2023-03-17T08:02:41.430Z,2.9
2023-03-17T08:08:25.068Z,2.3
2023-03-17T08:14:09.163Z,2.6
2023-03-17T08:19:53.021Z,3.8
2023-03-17T08:25:37.085Z,2.2
2023-03-17T08:31:21.435Z,3.4
2023-03-17T08:37:06.284Z,3.6
2023-03-17T08:42:51.503Z,2.9
2023-03-17T08:48:35.507Z,3.4
2023-03-17T08:54:19.269Z,2.8
2023-03-17T09:00:03.164Z,3.2
2023-03-17T09:05:46.792Z,2.4
2023-03-17T09:11:32.041Z,2.9
2023-03-17T09:17:16.476Z,3.7
2023-03-17T09:23:00.028Z,3
2023-03-17T09:28:45.773Z,2.3
2023-03-17T09:34:29.728Z,3.2
2023-03-17T09:40:16.407Z,3.3
2023-03-17T09:46:03.401Z,2.6
2023-03-17T09:51:47.737Z,3.4
2023-03-17T09:57:34.740Z,2.4
2023-03-17T10:03:18.682Z,2.3
2023-03-17T10:09:04.042Z,1.9
2023-03-17T10:14:54.074Z,3.3
2023-03-17T10:20:41.387Z,2.5
2023-03-17T10:26:29.767Z,2.8
2023-03-17T10:32:14.760Z,2.9
2023-03-17T10:38:14.527Z,3.8
2023-03-17T10:44:00.203Z,2.3
2023-03-17T10:49:46.361Z,3.6
2023-03-17T10:55:31.035Z,2.2
2023-03-17T11:01:18.829Z,2.3
2023-03-17T11:07:07.616Z,2.7
2023-03-17T11:12:56.479Z,3.8
2023-03-17T11:18:41.167Z,1.9
2023-03-17T11:24:42.285Z,2.8
2023-03-17T11:30:33.941Z,3.8
2023-03-17T11:36:23.180Z,3.4
2023-03-17T11:42:14.008Z,3.4
2023-03-17T11:48:06.209Z,3.2
2023-03-17T11:54:02.174Z,2.6
2023-03-17T11:59:49.921Z,2.4
2023-03-17T12:05:37.061Z,2.6
2023-03-17T12:11:23.314Z,3.1
2023-03-17T12:17:11.871Z,2.8
2023-03-17T12:22:59.783Z,2.4
2023-03-17T12:28:46.642Z,3.3
2023-03-17T12:34:33.889Z,2.5
2023-03-17T12:40:20.264Z,3.7
2023-03-17T12:46:13.795Z,2.4
2023-03-17T12:52:04.341Z,3
2023-03-17T12:57:49.557Z,3.6
2023-03-17T13:03:34.944Z,2.5
2023-03-17T13:09:36.897Z,2.5
2023-03-17T13:15:29.442Z,2.5
2023-03-17T13:21:17.353Z,2.3
2023-03-17T13:27:03.044Z,2.2
2023-03-17T13:32:48.259Z,2.5
2023-03-17T13:38:45.422Z,2.4
2023-03-17T13:44:44.062Z,3
2023-03-17T13:50:34.314Z,3.2
2023-03-17T13:56:25.520Z,2.8
2023-03-17T14:02:14.642Z,3.1
2023-03-17T14:08:00.679Z,2.5
2023-03-17T14:13:49.371Z,3.1
2023-03-17T14:19:32.988Z,3.3
2023-03-17T14:25:22.494Z,2.3
2023-03-17T14:31:07.778Z,4.2
2023-03-17T14:36:53.390Z,3.6
2023-03-17T14:42:39.215Z,2.6
2023-03-17T14:48:25.251Z,3.7
2023-03-17T14:54:13.996Z,3.4
2023-03-17T15:00:04.421Z,4.5
2023-03-17T15:05:48.896Z,2.5
2023-03-17T15:11:37.710Z,2.4
2023-03-17T15:17:22.642Z,2.6
2023-03-17T15:23:07.692Z,3.6
2023-03-17T15:28:52.343Z,3.7
2023-03-17T15:34:36.126Z,4.3
2023-03-17T15:40:20.104Z,2.2
2023-03-17T15:46:05.734Z,2.6
2023-03-17T15:51:49.723Z,3.3
2023-03-17T15:57:33.448Z,3.2
2023-03-17T16:03:21.327Z,3.5
2023-03-17T16:09:05.153Z,2.4
2023-03-17T16:14:48.594Z,3.2
2023-03-17T16:20:35.222Z,3.3
2023-03-17T16:26:26.914Z,1.9
2023-03-17T16:32:12.036Z,3.8
2023-03-17T16:37:56.140Z,2.6
2023-03-17T16:43:40.024Z,3.7
2023-03-17T16:49:24.960Z,4
2023-03-17T16:55:09.048Z,2.9
2023-03-17T17:00:53.664Z,3.7
2023-03-17T17:06:37.432Z,3.6
2023-03-17T17:12:21.047Z,4
2023-03-17T17:18:06.090Z,5.5
2023-03-17T17:23:52.865Z,2.7
2023-03-17T17:29:37.003Z,4.2
2023-03-17T17:35:21.989Z,4
2023-03-17T17:41:06.012Z,3.7
2023-03-17T17:46:51.364Z,3.8
2023-03-17T17:52:34.907Z,4.2
2023-03-17T17:58:24.422Z,4
2023-03-17T18:04:15.129Z,4.1
2023-03-17T18:10:11.198Z,6
2023-03-17T18:16:06.685Z,4.8
2023-03-17T18:21:58.010Z,6
2023-03-17T18:27:43.335Z,4.6
2023-03-17T18:33:27.628Z,3.9
2023-03-17T18:39:14.077Z,5.7
2023-03-17T18:45:01.877Z,5
2023-03-17T18:50:59.112Z,7.2
2023-03-17T18:56:52.036Z,5.4
2023-03-17T19:02:41.778Z,6.8
2023-03-17T19:08:27.639Z,7
2023-03-17T19:14:15.702Z,6.6
2023-03-17T19:20:05.796Z,5.3
2023-03-17T19:25:56.049Z,5.8
2023-03-17T19:31:41.234Z,6.9
2023-03-17T19:37:32.743Z,6.6
2023-03-17T19:43:40.211Z,6.8
2023-03-17T19:49:25.438Z,5.9
2023-03-17T19:55:25.153Z,5.6
2023-03-17T20:01:12.521Z,6.5
2023-03-17T20:07:05.909Z,5.5
2023-03-17T20:12:50.702Z,9.3
2023-03-17T20:18:42.152Z,6.1
2023-03-17T20:24:30.056Z,7
2023-03-17T20:30:20.495Z,10
2023-03-17T20:36:15.104Z,8.2
2023-03-17T20:42:21.680Z,6.8
2023-03-17T20:48:15.805Z,5.4
2023-03-17T20:53:59.814Z,7.9
2023-03-17T20:59:44.208Z,6
2023-03-17T21:05:34.592Z,6.7
2023-03-17T21:11:25.188Z,6.9
2023-03-17T21:17:09.835Z,5.6
2023-03-17T21:22:55.668Z,5.6
2023-03-17T21:28:44.087Z,5.7
2023-03-17T21:34:35.016Z,7.2
2023-03-17T21:40:21.607Z,6.3
2023-03-17T21:46:14.600Z,7.9
2023-03-17T21:52:03.529Z,6.6
2023-03-17T21:57:49.843Z,5.4
2023-03-17T22:03:34.965Z,5.2
2023-03-17T22:09:38.457Z,6.6
2023-03-17T22:15:29.166Z,6.2
2023-03-17T22:21:15.228Z,5.6
2023-03-17T22:27:06.328Z,5
2023-03-17T22:32:50.624Z,7.8
2023-03-17T22:38:43.047Z,6.9
2023-03-17T22:44:34.109Z,5.9
2023-03-17T22:50:31.721Z,4.8
2023-03-17T22:56:21.755Z,6.9
2023-03-17T23:02:06.187Z,7.7
2023-03-17T23:07:53.923Z,5.9
2023-03-17T23:13:42.383Z,6.5
2023-03-17T23:19:27.376Z,6.7
2023-03-17T23:25:34.390Z,6.1
2023-03-17T23:31:26.459Z,5.2
2023-03-17T23:37:16.814Z,5.6
2023-03-17T23:43:10.090Z,6.3
2023-03-17T23:48:58.850Z,5.4
2023-03-17T23:54:48.768Z,5.3
